createdAt,value
2018-12-03T00:04:37.906Z,98761.48
2018-12-03T00:09:40.867Z,98765.48
2018-12-03T00:14:44.080Z,98760.10
2018-12-03T00:19:47.287Z,98756.07
2018-12-03T00:24:50.481Z,98774.41
2018-12-03T00:29:53.629Z,98773.95
2018-12-03T00:34:56.812Z,98768.87
2018-12-03T00:39:59.981Z,98771.38
2018-12-03T00:45:03.199Z,98771.64
2018-12-03T00:50:06.454Z,98777.34
2018-12-03T00:55:09.661Z,98780.31
2018-12-03T01:00:12.857Z,98776.73
2018-12-03T01:05:16.077Z,98772.58
2018-12-03T01:10:19.267Z,98770.61
2018-12-03T01:15:22.482Z,98781.86
2018-12-03T01:20:25.682Z,98775.95
2018-12-03T01:25:28.890Z,98758.23
2018-12-03T01:30:32.127Z,98751.78
2018-12-03T01:35:35.298Z,98765.31
2018-12-03T01:40:38.441Z,98757.62
2018-12-03T01:45:41.628Z,98751.91
2018-12-03T01:50:44.846Z,98745.75
2018-12-03T01:55:48.043Z,98748.23
2018-12-03T02:00:51.245Z,98747.92
2018-12-03T02:05:54.459Z,98766.69
2018-12-03T02:10:57.675Z,98751.00
2018-12-03T02:16:00.872Z,98760.84
2018-12-03T02:21:04.089Z,98756.07
2018-12-03T02:26:07.297Z,98755.16
2018-12-03T02:31:10.490Z,98755.61
2018-12-03T02:36:13.725Z,98756.07
2018-12-03T02:41:16.914Z,98745.91
2018-12-03T02:46:20.142Z,98740.49
2018-12-03T02:51:23.334Z,98753.28
2018-12-03T02:56:26.554Z,98750.23
2018-12-03T03:01:29.746Z,98751.13
2018-12-03T03:06:32.978Z,98749.30
2018-12-03T03:11:36.161Z,98737.88
2018-12-03T03:16:39.373Z,98738.98
2018-12-03T03:21:42.581Z,98744.69
2018-12-03T03:26:45.790Z,98738.98
2018-12-03T03:31:49.003Z,98730.34
2018-12-03T03:36:52.206Z,98728.52
2018-12-03T03:41:55.346Z,98725.41
2018-12-03T03:46:58.522Z,98710.63
2018-12-03T03:52:01.742Z,98717.27
2018-12-03T03:57:05.150Z,98726.64
2018-12-03T04:02:08.355Z,98725.29
2018-12-03T04:07:11.553Z,98726.19
2018-12-03T04:12:14.774Z,98727.41
2018-12-03T04:17:17.987Z,98713.87
2018-12-03T04:22:21.181Z,98715.11
2018-12-03T04:27:24.403Z,98711.39
2018-12-03T04:32:27.604Z,98710.95
2018-12-03T04:37:30.817Z,98702.19
2018-12-03T04:42:34.042Z,98699.70
2018-12-03T04:47:37.450Z,98700.80
2018-12-03T04:52:40.659Z,98701.90
2018-12-03T04:57:43.858Z,98697.74
2018-12-03T05:02:49.426Z,98714.78
2018-12-03T05:07:52.641Z,98710.34
2018-12-03T05:12:55.865Z,98713.72
2018-12-03T05:17:59.073Z,98700.77
2018-12-03T05:23:02.271Z,98710.46
2018-12-03T05:28:05.594Z,98706.80
2018-12-03T05:33:08.766Z,98700.92
2018-12-03T05:38:12.015Z,98702.02
2018-12-03T05:43:15.213Z,98706.30
2018-12-03T05:48:18.427Z,98717.54
2018-12-03T05:53:21.622Z,98724.02
2018-12-03T05:58:24.845Z,98723.86
2018-12-03T06:03:28.034Z,98729.72
2018-12-03T06:08:31.247Z,98732.49
2018-12-03T06:13:34.466Z,98723.09
2018-12-03T06:18:37.657Z,98718.64
2018-12-03T06:23:40.886Z,98726.02
2018-12-03T06:28:44.088Z,98728.17
2018-12-03T06:33:47.297Z,98738.17
2018-12-03T06:38:50.506Z,98733.55
2018-12-03T06:43:53.669Z,98718.77
2018-12-03T06:48:56.834Z,98732.62
2018-12-03T06:54:00.030Z,98737.42
2018-12-03T06:59:03.242Z,98738.32
2018-12-03T07:04:06.553Z,98731.11
2018-12-03T07:09:11.609Z,98731.72
2018-12-03T07:14:14.776Z,98734.77
2018-12-03T07:19:18.019Z,98726.79
2018-12-03T07:24:21.235Z,98722.02
2018-12-03T07:29:24.438Z,98715.05
2018-12-03T07:34:27.641Z,98722.02
2018-12-03T07:39:30.846Z,98736.15
2018-12-03T07:44:34.053Z,98739.34
2018-12-03T07:49:37.261Z,98735.27
2018-12-03T07:54:40.462Z,98741.64
2018-12-03T07:59:43.783Z,98743.26
2018-12-03T08:04:46.997Z,98739.72
2018-12-03T08:09:50.206Z,98742.61
2018-12-03T08:14:53.413Z,98739.95
2018-12-03T08:19:56.690Z,98730.72
2018-12-03T08:24:59.834Z,98737.39
2018-12-03T08:30:03.490Z,98733.13
2018-12-03T08:35:10.954Z,98738.34
2018-12-03T08:40:16.317Z,98745.95
2018-12-03T08:45:20.053Z,98766.66
2018-12-03T08:50:28.233Z,98761.30
2018-12-03T08:55:31.474Z,98754.27
2018-12-03T09:00:34.678Z,98762.44
2018-12-03T09:05:39.133Z,98754.62
2018-12-03T09:10:43.357Z,98755.09
2018-12-03T09:15:54.146Z,98764.06
2018-12-03T09:20:58.165Z,98771.15
2018-12-03T09:26:01.382Z,98769.62
2018-12-03T09:31:04.700Z,98772.55
2018-12-03T09:36:07.890Z,98771.05
2018-12-03T09:41:11.110Z,98770.58
2018-12-03T09:46:14.328Z,98773.05
2018-12-03T09:51:17.518Z,98795.98
2018-12-03T09:56:20.733Z,98786.14
2018-12-03T10:01:23.933Z,98787.67
2018-12-03T10:06:27.149Z,98788.63
2018-12-03T10:11:30.363Z,98787.58
2018-12-03T10:16:33.555Z,98790.95
2018-12-03T10:21:36.863Z,98784.31
2018-12-03T10:26:40.178Z,98776.95
2018-12-03T10:31:43.381Z,98778.02
2018-12-03T10:36:52.622Z,98771.31
2018-12-03T10:41:57.894Z,98770.39
2018-12-03T10:47:01.105Z,98771.16
2018-12-03T10:52:04.318Z,98766.28
2018-12-03T10:57:08.846Z,98773.50
2018-12-03T11:02:17.266Z,98769.95
2018-12-03T11:07:20.476Z,98762.42
2018-12-03T11:12:23.694Z,98754.44
2018-12-03T11:17:26.910Z,98752.89
2018-12-03T11:22:30.110Z,98739.36
2018-12-03T11:27:35.979Z,98742.76
2018-12-03T11:32:39.194Z,98734.45
2018-12-03T11:37:44.150Z,98739.22
2018-12-03T11:42:47.346Z,98738.16
2018-12-03T11:47:50.493Z,98738.77
2018-12-03T11:52:53.662Z,98730.30
2018-12-03T11:57:56.874Z,98731.55
2018-12-03T12:03:00.075Z,98732.61
2018-12-03T12:08:03.300Z,98732.33
2018-12-03T12:13:06.498Z,98734.78
2018-12-03T12:18:09.703Z,98733.88
2018-12-03T12:23:12.857Z,98733.40
2018-12-03T12:28:16.009Z,98734.17
2018-12-03T12:33:19.218Z,98734.48
2018-12-03T12:38:22.434Z,98719.25
2018-12-03T12:43:25.638Z,98719.42
2018-12-03T12:48:28.794Z,98724.19
2018-12-03T12:53:31.970Z,98731.45
2018-12-03T12:58:35.167Z,98717.27
2018-12-03T13:03:38.381Z,98708.34
2018-12-03T13:08:41.578Z,98715.75
2018-12-03T13:13:44.798Z,98717.75
2018-12-03T13:18:47.998Z,98714.20
2018-12-03T13:23:51.200Z,98713.73
2018-12-03T13:28:54.418Z,98714.50
2018-12-03T13:33:57.634Z,98704.97
2018-12-03T13:39:00.870Z,98700.64
2018-12-03T13:44:04.077Z,98697.42
2018-12-03T13:49:08.073Z,98702.52
2018-12-03T13:54:11.274Z,98696.65
2018-12-03T13:59:14.422Z,98698.03
2018-12-03T14:04:17.588Z,98700.35
2018-12-03T14:09:30.561Z,98709.45
2018-12-03T14:14:44.519Z,98720.89
2018-12-03T14:19:51.286Z,98731.81
2018-12-03T14:24:54.488Z,98749.63
2018-12-03T14:29:57.697Z,98741.44
2018-12-03T14:35:00.905Z,98751.63
2018-12-03T14:40:04.741Z,98765.77
2018-12-03T14:45:11.014Z,98758.30
2018-12-03T14:50:14.209Z,98758.30
2018-12-03T14:55:17.479Z,98768.77
2018-12-03T15:00:20.637Z,98764.62
2018-12-03T15:05:23.853Z,98753.98
2018-12-03T15:10:27.008Z,98764.70
2018-12-03T15:15:30.162Z,98757.32
2018-12-03T15:20:33.366Z,98767.31
2018-12-03T15:25:36.579Z,98759.00
2018-12-03T15:30:39.745Z,98749.47
2018-12-03T15:35:42.898Z,98736.42
2018-12-03T15:40:46.108Z,98736.29
2018-12-03T15:45:49.310Z,98747.67
2018-12-03T15:50:52.509Z,98757.53
2018-12-03T15:55:55.726Z,98755.38
2018-12-03T16:00:58.877Z,98762.75
2018-12-03T16:06:02.039Z,98747.67
2018-12-03T16:11:05.195Z,98760.30
2018-12-03T16:16:08.355Z,98751.53
2018-12-03T16:21:11.561Z,98761.23
2018-12-03T16:26:14.764Z,98755.98
2018-12-03T16:31:18.006Z,98754.44
2018-12-03T16:36:21.644Z,98743.96
2018-12-03T16:41:24.810Z,98747.51
2018-12-03T16:46:28.017Z,98746.45
2018-12-03T16:51:31.218Z,98742.45
2018-12-03T16:56:34.438Z,98744.77
2018-12-03T17:01:37.634Z,98757.41
2018-12-03T17:06:40.853Z,98759.25
2018-12-03T17:11:44.567Z,98754.77
2018-12-03T17:16:47.773Z,98754.16
2018-12-03T17:22:05.318Z,98761.58
2018-12-03T17:27:08.542Z,98762.36
2018-12-03T17:32:11.697Z,98760.81
2018-12-03T17:37:14.858Z,98761.13
2018-12-03T17:42:18.063Z,98769.61
2018-12-03T17:47:21.274Z,98751.87
2018-12-03T17:52:24.466Z,98738.79
2018-12-03T17:57:27.673Z,98754.03
2018-12-03T18:02:31.608Z,98753.42
2018-12-03T18:07:34.824Z,98751.27
2018-12-03T18:12:38.038Z,98755.91
2018-12-03T18:17:41.209Z,98750.97
2018-12-03T18:22:44.434Z,98749.11
2018-12-03T18:27:47.662Z,98753.75
2018-12-03T18:32:50.877Z,98742.66
2018-12-03T18:37:54.066Z,98746.20
2018-12-03T18:42:57.266Z,98748.05
2018-12-03T18:48:00.506Z,98729.86
2018-12-03T18:53:10.662Z,98723.09
2018-12-03T18:58:16.230Z,98727.55
2018-12-03T19:03:19.386Z,98733.09
2018-12-03T19:08:22.534Z,98736.02
2018-12-03T19:13:25.746Z,98721.09
2018-12-03T19:18:28.946Z,98730.80
2018-12-03T19:23:32.151Z,98736.34
2018-12-03T19:28:35.361Z,98729.86
2018-12-03T19:33:38.569Z,98726.31
2018-12-03T19:38:41.774Z,98728.31
2018-12-03T19:43:44.986Z,98733.08
2018-12-03T19:48:48.190Z,98730.47
2018-12-03T19:54:20.532Z,98732.63
2018-12-03T19:59:23.274Z,98723.87
2018-12-03T20:04:31.350Z,98731.25
2018-12-03T20:09:33.830Z,98719.23
2018-12-03T20:14:36.326Z,98719.23
2018-12-03T20:19:38.871Z,98718.13
2018-12-03T20:24:41.800Z,98718.00
2018-12-03T20:29:44.510Z,98712.58
2018-12-03T20:34:46.986Z,98709.81
2018-12-03T20:39:53.301Z,98711.84
2018-12-03T20:44:56.023Z,98711.39
2018-12-03T20:49:59.321Z,98721.39
2018-12-03T20:55:01.896Z,98713.23
2018-12-03T21:00:07.942Z,98717.39
2018-12-03T21:05:10.614Z,98719.55
2018-12-03T21:10:13.210Z,98724.03
2018-12-03T21:15:15.718Z,98724.03
2018-12-03T21:20:18.215Z,98732.64
2018-12-03T21:25:21.028Z,98730.48
2018-12-03T21:30:23.586Z,98738.95
2018-12-03T21:35:26.081Z,98736.80
2018-12-03T21:40:28.556Z,98738.63
2018-12-03T21:45:31.034Z,98746.05
2018-12-03T21:50:33.658Z,98743.12
2018-12-03T21:55:36.278Z,98738.47
2018-12-03T22:00:39.327Z,98754.66
2018-12-03T22:05:41.829Z,98756.36
2018-12-03T22:10:44.302Z,98756.64
2018-12-03T22:15:46.773Z,98775.42
2018-12-03T22:20:49.433Z,98777.09
2018-12-03T22:25:52.556Z,98784.03
2018-12-03T22:30:55.137Z,98782.48
2018-12-03T22:35:57.635Z,98789.56
2018-12-03T22:41:00.786Z,98790.95
2018-12-03T22:46:04.026Z,98788.95
2018-12-03T22:51:06.518Z,98782.77
2018-12-03T22:56:09.013Z,98785.53
2018-12-03T23:01:13.501Z,98788.63
2018-12-03T23:06:16.049Z,98785.85
2018-12-03T23:11:18.642Z,98793.55
2018-12-03T23:16:21.237Z,98800.64
2018-12-03T23:21:23.829Z,98804.28
2018-12-03T23:26:26.431Z,98810.44
2018-12-03T23:31:28.962Z,98814.76
2018-12-03T23:36:31.514Z,98818.14
2018-12-03T23:41:34.107Z,98822.91
2018-12-03T23:46:36.698Z,98827.84
2018-12-03T23:51:39.192Z,98827.06
2018-12-03T23:56:41.748Z,98832.60
